Time,TemperatureF,DewpointF,PressureIn,WindDirection,WindDirectionDegrees,WindSpeedMPH,WindSpeedGustMPH,Humidity,HourlyPrecipIn,Conditions,Clouds,dailyrainin,SoftwareType,DateUTC
2013-11-20 00:02:00,31.8,26.6,30.21,ESE,119,1.8,3.6,81,0.00,,---,0.00,VWS V14.01,2013-11-20 06:02:00,
2013-11-20 00:07:00,31.6,26.4,30.21,SE,134,0.0,0.0,81,0.00,,---,0.00,VWS V14.01,2013-11-20 06:07:00,
2013-11-20 00:12:00,31.4,26.2,30.21,SE,136,0.0,1.8,81,0.00,,---,0.00,VWS V14.01,2013-11-20 06:12:00,
2013-11-20 00:17:00,31.2,26.0,30.21,ESE,113,0.0,1.8,81,0.00,,---,0.00,VWS V14.01,2013-11-20 06:17:00,
2013-11-20 00:22:00,31.1,26.2,30.21,East,101,1.8,3.6,82,0.00,,---,0.00,VWS V14.01,2013-11-20 06:22:00,
2013-11-20 00:27:00,31.0,26.1,30.21,East,100,0.0,1.8,82,0.00,,---,0.00,VWS V14.01,2013-11-20 06:27:00,
2013-11-20 00:32:00,31.0,26.1,30.22,East,98,1.8,3.6,82,0.00,,---,0.00,VWS V14.01,2013-11-20 06:32:00,
2013-11-20 00:37:00,30.9,26.0,30.22,SW,228,3.6,3.6,82,0.00,,---,0.00,VWS V14.01,2013-11-20 06:37:00,
2013-11-20 00:42:00,30.9,26.0,30.22,SE,145,0.0,1.8,82,0.00,,---,0.00,VWS V14.01,2013-11-20 06:42:00,
2013-11-20 00:47:00,30.7,25.8,30.22,SSE,149,0.0,0.0,82,0.00,,---,0.00,VWS V14.01,2013-11-20 06:47:00,
2013-11-20 00:52:00,30.6,25.7,30.22,ESE,107,1.8,1.8,82,0.00,,---,0.00,VWS V14.01,2013-11-20 06:52:00,
2013-11-20 00:57:00,30.7,26.1,30.21,ESE,103,1.8,1.8,83,0.00,,---,0.00,VWS V14.01,2013-11-20 06:57:00,
2013-11-20 01:02:00,30.8,26.2,30.21,ESE,108,0.0,1.8,83,0.00,,---,0.00,VWS V14.01,2013-11-20 07:02:00,
2013-11-20 01:07:00,30.8,26.2,30.22,ESE,105,0.0,0.0,83,0.00,,---,0.00,VWS V14.01,2013-11-20 07:07:00,
2013-11-20 01:12:00,30.7,26.1,30.22,ESE,105,0.0,1.8,83,0.00,,---,0.00,VWS V14.01,2013-11-20 07:12:00,
2013-11-20 01:17:00,30.6,26.0,30.23,ESE,105,0.0,0.0,83,0.00,,---,0.00,VWS V14.01,2013-11-20 07:17:00,
2013-11-20 01:22:00,30.3,25.7,30.22,East,101,3.6,3.6,83,0.00,,---,0.00,VWS V14.01,2013-11-20 07:22:00,
2013-11-20 01:27:00,30.0,25.4,30.21,East,99,0.0,1.8,83,0.00,,---,0.00,VWS V14.01,2013-11-20 07:27:00,
2013-11-20 01:32:00,29.8,25.2,30.22,East,98,0.0,0.0,83,0.00,,---,0.00,VWS V14.01,2013-11-20 07:32:00,
2013-11-20 01:37:00,29.5,24.9,30.22,East,98,0.0,0.0,83,0.00,,---,0.00,VWS V14.01,2013-11-20 07:37:00,
2013-11-20 01:42:00,29.4,25.1,30.22,East,99,0.0,0.0,84,0.00,,---,0.00,VWS V14.01,2013-11-20 07:42:00,
2013-11-20 01:47:00,29.5,25.5,30.22,East,98,0.0,0.0,85,0.00,,---,0.00,VWS V14.01,2013-11-20 07:47:00,
2013-11-20 01:52:00,29.6,25.5,30.22,East,98,0.0,0.0,85,0.00,,---,0.00,VWS V14.01,2013-11-20 07:52:00,
2013-11-20 01:57:00,29.6,25.5,30.22,East,98,0.0,0.0,85,0.00,,---,0.00,VWS V14.01,2013-11-20 07:57:00,
2013-11-20 02:02:00,29.5,25.5,30.22,East,100,0.0,0.0,85,0.00,,---,0.00,VWS V14.01,2013-11-20 08:02:00,
2013-11-20 02:07:00,29.5,25.5,30.22,East,100,0.0,0.0,85,0.00,,---,0.00,VWS V14.01,2013-11-20 08:07:00,
2013-11-20 02:12:00,29.6,25.5,30.22,East,100,0.0,0.0,85,0.00,,---,0.00,VWS V14.01,2013-11-20 08:12:00,
2013-11-20 02:17:00,29.9,26.1,30.22,ESE,120,0.0,0.0,86,0.00,,---,0.00,VWS V14.01,2013-11-20 08:17:00,
2013-11-20 02:22:00,30.2,26.4,30.22,ESE,120,0.0,0.0,86,0.00,,---,0.00,VWS V14.01,2013-11-20 08:22:00,
2013-11-20 02:27:00,30.4,26.6,30.23,East,93,0.0,0.0,86,0.00,,---,0.00,VWS V14.01,2013-11-20 08:27:00,
2013-11-20 02:32:00,30.6,26.5,30.22,East,93,0.0,0.0,85,0.00,,---,0.00,VWS V14.01,2013-11-20 08:32:00,
2013-11-20 02:37:00,30.7,26.6,30.22,ESE,120,0.0,0.0,85,0.00,,---,0.00,VWS V14.01,2013-11-20 08:37:00,
2013-11-20 02:42:00,30.7,26.6,30.22,SE,127,0.0,0.0,85,0.00,,---,0.00,VWS V14.01,2013-11-20 08:42:00,
2013-11-20 02:47:00,30.8,26.7,30.23,SW,236,0.0,1.8,85,0.00,,---,0.00,VWS V14.01,2013-11-20 08:47:00,
2013-11-20 02:52:00,30.7,26.4,30.23,ESE,103,0.0,1.8,84,0.00,,---,0.00,VWS V14.01,2013-11-20 08:52:00,
2013-11-20 02:57:00,30.6,26.3,30.22,ESE,118,0.0,1.8,84,0.00,,---,0.00,VWS V14.01,2013-11-20 08:57:00,
2013-11-20 03:02:00,30.7,26.4,30.22,ESE,117,0.0,1.8,84,0.00,,---,0.00,VWS V14.01,2013-11-20 09:02:00,
2013-11-20 03:07:00,30.7,26.6,30.22,ESE,120,1.8,1.8,85,0.00,,---,0.00,VWS V14.01,2013-11-20 09:07:00,
2013-11-20 03:12:00,30.9,26.8,30.22,ESE,115,1.8,1.8,85,0.00,,---,0.00,VWS V14.01,2013-11-20 09:12:00,
2013-11-20 03:17:00,31.0,26.9,30.22,ESE,108,1.8,3.6,85,0.00,,---,0.00,VWS V14.01,2013-11-20 09:17:00,
2013-11-20 03:22:00,31.2,26.9,30.21,ESE,102,1.8,1.8,84,0.00,,---,0.00,VWS V14.01,2013-11-20 09:22:00,
2013-11-20 03:27:00,31.2,26.9,30.21,ESE,104,0.0,1.8,84,0.00,,---,0.00,VWS V14.01,2013-11-20 09:27:00,
2013-11-20 03:32:00,31.2,26.9,30.22,ESE,104,0.0,0.0,84,0.00,,---,0.00,VWS V14.01,2013-11-20 09:32:00,
2013-11-20 03:37:00,31.1,26.8,30.21,ESE,105,0.0,0.0,84,0.00,,---,0.00,VWS V14.01,2013-11-20 09:37:00,
2013-11-20 03:42:00,31.2,26.9,30.20,ESE,122,1.8,3.6,84,0.00,,---,0.00,VWS V14.01,2013-11-20 09:42:00,
2013-11-20 03:47:00,31.2,26.9,30.20,ESE,117,1.8,1.8,84,0.00,,---,0.00,VWS V14.01,2013-11-20 09:47:00,
2013-11-20 03:52:00,31.3,27.0,30.20,East,101,0.0,0.0,84,0.00,,---,0.00,VWS V14.01,2013-11-20 09:52:00,
2013-11-20 03:57:00,31.4,27.0,30.20,ESE,120,0.0,3.6,84,0.00,,---,0.00,VWS V14.01,2013-11-20 09:57:00,
2013-11-20 04:02:00,31.6,27.2,30.19,ESE,108,1.8,3.6,84,0.00,,---,0.00,VWS V14.01,2013-11-20 10:02:00,
2013-11-20 04:07:00,31.9,27.3,30.19,SE,127,0.0,3.6,83,0.00,,---,0.00,VWS V14.01,2013-11-20 10:07:00,
2013-11-20 04:12:00,32.1,27.5,30.19,SSE,151,1.8,7.2,83,0.00,,---,0.00,VWS V14.01,2013-11-20 10:12:00,
2013-11-20 04:16:00,32.3,27.7,30.18,SE,136,1.8,3.6,83,0.00,,---,0.00,VWS V14.01,2013-11-20 10:16:00,
2013-11-20 04:21:00,32.5,27.9,30.18,SSE,149,7.2,10.8,83,0.00,,---,0.00,VWS V14.01,2013-11-20 10:21:00,
2013-11-20 04:26:00,32.7,27.8,30.18,SSW,198,1.8,5.4,82,0.00,,---,0.00,VWS V14.01,2013-11-20 10:26:00,
2013-11-20 04:31:00,32.9,28.0,30.18,SW,218,5.4,9.0,82,0.00,,---,0.00,VWS V14.01,2013-11-20 10:31:00,
2013-11-20 04:36:00,33.0,28.1,30.18,WSW,257,1.8,3.6,82,0.00,,---,0.00,VWS V14.01,2013-11-20 10:36:00,
2013-11-20 04:41:00,33.0,27.8,30.18,ESE,104,1.8,3.6,81,0.00,,---,0.00,VWS V14.01,2013-11-20 10:41:00,
2013-11-20 04:46:00,33.1,27.9,30.19,ESE,106,3.6,9.0,81,0.00,,---,0.00,VWS V14.01,2013-11-20 10:46:00,
2013-11-20 04:51:00,33.2,28.0,30.19,SW,220,1.8,3.6,81,0.00,,---,0.00,VWS V14.01,2013-11-20 10:51:00,
2013-11-20 04:56:00,33.3,27.8,30.19,SSW,197,0.0,5.4,80,0.00,,---,0.00,VWS V14.01,2013-11-20 10:56:00,
2013-11-20 05:02:00,33.3,27.8,30.19,SSE,163,1.8,3.6,80,0.00,,---,0.00,VWS V14.01,2013-11-20 11:02:00,
2013-11-20 05:07:00,33.2,27.7,30.19,SSW,201,1.8,1.8,80,0.00,,---,0.00,VWS V14.01,2013-11-20 11:07:00,
2013-11-20 05:12:00,33.0,27.5,30.18,ESE,108,3.6,5.4,80,0.00,,---,0.00,VWS V14.01,2013-11-20 11:12:00,
2013-11-20 05:17:00,32.8,27.3,30.18,South,181,1.8,9.0,80,0.00,,---,0.00,VWS V14.01,2013-11-20 11:17:00,
2013-11-20 05:22:00,32.7,27.2,30.18,ESE,108,7.2,9.0,80,0.00,,---,0.00,VWS V14.01,2013-11-20 11:22:00,
2013-11-20 05:27:00,32.6,27.4,30.17,ESE,114,3.6,10.8,81,0.00,,---,0.00,VWS V14.01,2013-11-20 11:27:00,
2013-11-20 05:32:00,32.6,27.4,30.17,ESE,107,3.6,5.4,81,0.00,,---,0.00,VWS V14.01,2013-11-20 11:32:00,
2013-11-20 05:36:00,32.5,27.3,30.17,SE,134,10.8,10.8,81,0.00,,---,0.00,VWS V14.01,2013-11-20 11:36:00,
2013-11-20 05:41:00,32.5,27.3,30.17,ESE,107,3.6,12.6,81,0.00,,---,0.00,VWS V14.01,2013-11-20 11:41:00,
2013-11-20 05:46:00,32.4,27.2,30.17,ESE,115,7.2,7.2,81,0.00,,---,0.00,VWS V14.01,2013-11-20 11:46:00,
2013-11-20 05:51:00,32.4,27.2,30.17,ESE,120,3.6,9.0,81,0.00,,---,0.00,VWS V14.01,2013-11-20 11:51:00,
2013-11-20 05:56:00,32.3,27.1,30.17,SE,129,1.8,7.2,81,0.00,,---,0.00,VWS V14.01,2013-11-20 11:56:00,
2013-11-20 06:01:00,32.2,27.0,30.16,SE,141,7.2,10.8,81,0.00,,---,0.00,VWS V14.01,2013-11-20 12:01:00,
2013-11-20 06:06:00,32.2,27.0,30.16,ESE,108,9.0,9.0,81,0.00,,---,0.00,VWS V14.01,2013-11-20 12:06:00,
2013-11-20 06:11:00,32.3,27.1,30.16,SE,132,7.2,14.4,81,0.00,,---,0.00,VWS V14.01,2013-11-20 12:11:00,
2013-11-20 06:16:00,32.3,27.1,30.16,SE,128,3.6,5.4,81,0.00,,---,0.00,VWS V14.01,2013-11-20 12:16:00,
2013-11-20 06:21:00,32.2,27.0,30.16,ESE,110,10.8,12.6,81,0.00,,---,0.00,VWS V14.01,2013-11-20 12:21:00,
2013-11-20 06:26:00,32.2,27.0,30.16,ESE,117,3.6,5.4,81,0.00,,---,0.00,VWS V14.01,2013-11-20 12:26:00,
2013-11-20 06:31:00,32.1,26.9,30.17,South,181,3.6,7.2,81,0.00,,---,0.00,VWS V14.01,2013-11-20 12:31:00,
2013-11-20 06:36:00,32.1,26.9,30.16,East,93,3.6,5.4,81,0.00,,---,0.00,VWS V14.01,2013-11-20 12:36:00,
2013-11-20 06:41:00,32.0,26.8,30.17,ESE,103,10.8,10.8,81,0.00,,---,0.00,VWS V14.01,2013-11-20 12:41:00,
2013-11-20 06:46:00,32.0,26.8,30.17,ESE,114,1.8,7.2,81,0.00,,---,0.00,VWS V14.01,2013-11-20 12:46:00,
2013-11-20 06:51:00,31.9,26.7,30.17,ESE,115,5.4,7.2,81,0.00,,---,0.00,VWS V14.01,2013-11-20 12:51:00,
2013-11-20 06:56:00,31.9,26.7,30.17,SE,127,0.0,9.0,81,0.00,,---,0.00,VWS V14.01,2013-11-20 12:56:00,
2013-11-20 07:01:00,31.9,26.7,30.17,ESE,107,1.8,3.6,81,0.00,,---,0.00,VWS V14.01,2013-11-20 13:01:00,
2013-11-20 07:06:00,32.0,26.8,30.18,SE,143,0.0,5.4,81,0.00,,---,0.00,VWS V14.01,2013-11-20 13:06:00,
2013-11-20 07:11:00,32.2,27.0,30.18,East,99,3.6,5.4,81,0.00,,---,0.00,VWS V14.01,2013-11-20 13:11:00,
2013-11-20 07:16:00,32.5,27.3,30.17,ESE,108,7.2,7.2,81,0.00,,---,0.00,VWS V14.01,2013-11-20 13:16:00,
2013-11-20 07:21:00,32.7,27.2,30.17,South,188,7.2,10.8,80,0.00,,---,0.00,VWS V14.01,2013-11-20 13:21:00,
2013-11-20 07:26:00,32.9,27.4,30.17,SW,217,3.6,12.6,80,0.00,,---,0.00,VWS V14.01,2013-11-20 13:26:00,
2013-11-20 07:31:00,33.0,27.2,30.17,ESE,107,3.6,9.0,79,0.00,,---,0.00,VWS V14.01,2013-11-20 13:31:00,
2013-11-20 07:36:00,33.0,27.2,30.18,SW,233,1.8,5.4,79,0.00,,---,0.00,VWS V14.01,2013-11-20 13:36:00,
2013-11-20 07:41:00,33.1,27.3,30.18,WSW,257,3.6,9.0,79,0.00,,---,0.00,VWS V14.01,2013-11-20 13:41:00,
2013-11-20 07:46:00,33.2,27.4,30.18,East,96,3.6,10.8,79,0.00,,---,0.00,VWS V14.01,2013-11-20 13:46:00,
2013-11-20 07:52:00,33.3,27.5,30.18,ESE,117,9.0,9.0,79,0.00,,---,0.00,VWS V14.01,2013-11-20 13:52:00,
2013-11-20 07:57:00,33.3,27.5,30.18,East,83,3.6,9.0,79,0.00,,---,0.00,VWS V14.01,2013-11-20 13:57:00,
2013-11-20 08:02:00,33.3,27.5,30.18,ESE,103,10.8,10.8,79,0.00,,---,0.00,VWS V14.01,2013-11-20 14:02:00,
2013-11-20 08:07:00,33.4,27.6,30.18,East,96,5.4,7.2,79,0.00,,---,0.00,VWS V14.01,2013-11-20 14:07:00,
2013-11-20 08:12:00,33.6,27.8,30.19,SE,127,5.4,12.6,79,0.00,,---,0.00,VWS V14.01,2013-11-20 14:12:00,
2013-11-20 08:17:00,33.7,27.6,30.19,SSW,210,3.6,7.2,78,0.00,,---,0.00,VWS V14.01,2013-11-20 14:17:00,
2013-11-20 08:22:00,33.8,27.7,30.19,SW,226,0.0,9.0,78,0.00,,---,0.00,VWS V14.01,2013-11-20 14:22:00,
2013-11-20 08:27:00,33.9,27.8,30.19,ESE,122,5.4,12.6,78,0.00,,---,0.00,VWS V14.01,2013-11-20 14:27:00,
2013-11-20 08:32:00,34.1,27.7,30.19,ESE,120,1.8,9.0,77,0.00,,---,0.00,VWS V14.01,2013-11-20 14:32:00,
2013-11-20 08:36:00,34.2,27.8,30.20,SSE,162,5.4,7.2,77,0.00,,---,0.00,VWS V14.01,2013-11-20 14:36:00,
2013-11-20 08:41:00,34.3,27.9,30.20,ESE,122,1.8,9.0,77,0.00,,---,0.00,VWS V14.01,2013-11-20 14:41:00,
2013-11-20 08:46:00,34.5,28.1,30.20,SSW,203,5.4,7.2,77,0.00,,---,0.00,VWS V14.01,2013-11-20 14:46:00,
2013-11-20 08:51:00,34.7,28.0,30.21,East,100,0.0,10.8,76,0.00,,---,0.00,VWS V14.01,2013-11-20 14:51:00,
2013-11-20 08:56:00,34.9,28.2,30.21,ESE,104,7.2,7.2,76,0.00,,---,0.00,VWS V14.01,2013-11-20 14:56:00,
2013-11-20 09:02:00,35.2,28.5,30.20,SSW,195,3.6,7.2,76,0.00,,---,0.00,VWS V14.01,2013-11-20 15:02:00,
2013-11-20 09:07:00,35.4,28.4,30.20,SW,222,0.0,3.6,75,0.00,,---,0.00,VWS V14.01,2013-11-20 15:07:00,
2013-11-20 09:12:00,35.7,28.4,30.20,ESE,108,5.4,12.6,74,0.00,,---,0.00,VWS V14.01,2013-11-20 15:12:00,
2013-11-20 09:17:00,35.9,28.6,30.20,SSW,198,3.6,3.6,74,0.00,,---,0.00,VWS V14.01,2013-11-20 15:17:00,
2013-11-20 09:22:00,36.1,28.5,30.19,NNE,16,3.6,7.2,73,0.00,,---,0.00,VWS V14.01,2013-11-20 15:22:00,
2013-11-20 09:27:00,36.3,29.0,30.19,SW,226,1.8,3.6,74,0.00,,---,0.00,VWS V14.01,2013-11-20 15:27:00,
2013-11-20 09:32:00,36.4,28.4,30.20,South,186,10.8,12.6,73,0.00,,---,0.00,VWS V14.01,2013-11-20 15:32:00,
2013-11-20 09:37:00,36.5,28.5,30.20,ESE,103,5.4,10.8,73,0.00,,---,0.00,VWS V14.01,2013-11-20 15:37:00,
2013-11-20 09:42:00,36.7,29.0,30.20,ESE,117,1.8,10.8,73,0.00,,---,0.00,VWS V14.01,2013-11-20 15:42:00,
2013-11-20 09:47:00,37.0,29.0,30.19,ESE,120,5.4,9.0,73,0.00,,---,0.00,VWS V14.01,2013-11-20 15:47:00,
2013-11-20 09:52:00,37.2,28.9,30.19,SW,215,3.6,12.6,72,0.00,,---,0.00,VWS V14.01,2013-11-20 15:52:00,
2013-11-20 09:57:00,37.2,28.9,30.19,WSW,238,5.4,12.6,72,0.00,,---,0.00,VWS V14.01,2013-11-20 15:57:00,
2013-11-20 10:02:00,37.3,29.0,30.19,East,92,5.4,7.2,72,0.00,,---,0.00,VWS V14.01,2013-11-20 16:02:00,
2013-11-20 10:07:00,37.3,28.7,30.19,East,80,7.2,7.2,71,0.00,,---,0.00,VWS V14.01,2013-11-20 16:07:00,
2013-11-20 10:12:00,37.4,29.1,30.19,SSW,198,1.8,9.0,72,0.00,,---,0.00,VWS V14.01,2013-11-20 16:12:00,
2013-11-20 10:17:00,37.6,29.3,30.19,ESE,108,3.6,5.4,72,0.00,,---,0.00,VWS V14.01,2013-11-20 16:17:00,
2013-11-20 10:22:00,37.8,29.1,30.19,SE,142,1.8,10.8,71,0.00,,---,0.00,VWS V14.01,2013-11-20 16:22:00,
2013-11-20 10:27:00,37.8,28.8,30.18,South,170,5.4,10.8,70,0.00,,---,0.00,VWS V14.01,2013-11-20 16:27:00,
2013-11-20 10:32:00,38.0,29.3,30.18,South,184,3.6,9.0,71,0.00,,---,0.00,VWS V14.01,2013-11-20 16:32:00,
2013-11-20 10:37:00,38.3,29.3,30.18,SE,132,3.6,5.4,70,0.00,,---,0.00,VWS V14.01,2013-11-20 16:37:00,
2013-11-20 10:42:00,38.4,29.4,30.17,SW,231,1.8,16.2,70,0.00,,---,0.00,VWS V14.01,2013-11-20 16:42:00,
2013-11-20 10:47:00,38.5,29.5,30.17,ENE,74,3.6,7.2,70,0.00,,---,0.00,VWS V14.01,2013-11-20 16:47:00,
2013-11-20 10:52:00,38.6,29.6,30.16,SSW,203,1.8,7.2,70,0.00,,---,0.00,VWS V14.01,2013-11-20 16:52:00,
2013-11-20 10:57:00,38.6,29.3,30.16,SE,128,3.6,5.4,69,0.00,,---,0.00,VWS V14.01,2013-11-20 16:57:00,
2013-11-20 11:02:00,38.6,29.3,30.16,SSE,152,3.6,12.6,69,0.00,,---,0.00,VWS V14.01,2013-11-20 17:02:00,
2013-11-20 11:07:00,38.5,29.2,30.16,ESE,117,3.6,14.4,69,0.00,,---,0.00,VWS V14.01,2013-11-20 17:07:00,
2013-11-20 11:11:00,38.7,29.4,30.15,SSE,156,7.2,14.4,69,0.00,,---,0.00,VWS V14.01,2013-11-20 17:11:00,
2013-11-20 11:16:00,38.8,29.5,30.14,ESE,105,1.8,9.0,69,0.00,,---,0.00,VWS V14.01,2013-11-20 17:16:00,
2013-11-20 11:21:00,38.9,29.2,30.14,South,188,5.4,9.0,68,0.00,,---,0.00,VWS V14.01,2013-11-20 17:21:00,
2013-11-20 11:26:00,39.0,29.3,30.14,SSE,165,7.2,7.2,68,0.00,,---,0.00,VWS V14.01,2013-11-20 17:26:00,
2013-11-20 11:31:00,39.2,29.5,30.14,East,101,9.0,10.8,68,0.00,,---,0.00,VWS V14.01,2013-11-20 17:31:00,
2013-11-20 11:36:00,39.4,29.7,30.13,WSW,240,3.6,14.4,68,0.00,,---,0.00,VWS V14.01,2013-11-20 17:36:00,
2013-11-20 11:41:00,39.4,29.4,30.13,South,174,7.2,16.2,67,0.00,,---,0.00,VWS V14.01,2013-11-20 17:41:00,
2013-11-20 11:46:00,39.5,29.5,30.13,South,190,5.4,14.4,67,0.00,,---,0.00,VWS V14.01,2013-11-20 17:46:00,
2013-11-20 11:51:00,39.5,29.5,30.13,SE,134,12.6,16.2,67,0.00,,---,0.00,VWS V14.01,2013-11-20 17:51:00,
2013-11-20 11:56:00,39.4,29.4,30.13,East,80,3.6,5.4,67,0.00,,---,0.00,VWS V14.01,2013-11-20 17:56:00,
2013-11-20 12:01:00,39.4,29.4,30.12,SE,128,3.6,9.0,67,0.00,,---,0.00,VWS V14.01,2013-11-20 18:01:00,
2013-11-20 12:06:00,39.5,29.5,30.12,ESE,117,10.8,19.8,67,0.00,,---,0.00,VWS V14.01,2013-11-20 18:06:00,
2013-11-20 12:11:00,39.5,29.5,30.12,ESE,110,12.6,14.4,67,0.00,,---,0.00,VWS V14.01,2013-11-20 18:11:00,
2013-11-20 12:16:00,39.4,29.0,30.11,SE,132,1.8,9.0,66,0.00,,---,0.00,VWS V14.01,2013-11-20 18:16:00,
2013-11-20 12:21:00,39.5,29.5,30.11,SSE,150,5.4,10.8,67,0.00,,---,0.00,VWS V14.01,2013-11-20 18:21:00,
2013-11-20 12:26:00,39.6,29.5,30.11,South,191,3.6,14.4,67,0.00,,---,0.00,VWS V14.01,2013-11-20 18:26:00,
2013-11-20 12:31:00,39.6,29.9,30.10,SW,214,7.2,10.8,68,0.00,,---,0.00,VWS V14.01,2013-11-20 18:31:00,
2013-11-20 12:36:00,39.6,29.9,30.10,SE,129,9.0,14.4,68,0.00,,---,0.00,VWS V14.01,2013-11-20 18:36:00,
2013-11-20 12:41:00,39.6,29.9,30.10,ESE,111,5.4,5.4,68,0.00,,---,0.00,VWS V14.01,2013-11-20 18:41:00,
2013-11-20 12:46:00,39.7,30.0,30.09,SE,129,7.2,10.8,68,0.00,,---,0.00,VWS V14.01,2013-11-20 18:46:00,
2013-11-20 12:51:00,39.6,30.2,30.09,ESE,115,10.8,10.8,69,0.00,,---,0.00,VWS V14.01,2013-11-20 18:51:00,
2013-11-20 12:56:00,39.6,30.2,30.08,SSW,204,1.8,9.0,69,0.00,,---,0.00,VWS V14.01,2013-11-20 18:56:00,
2013-11-20 13:01:00,39.6,30.2,30.08,ESE,111,5.4,18.0,69,0.00,,---,0.00,VWS V14.01,2013-11-20 19:01:00,
2013-11-20 13:06:00,39.6,30.2,30.08,ESE,120,12.6,18.0,69,0.00,,---,0.00,VWS V14.01,2013-11-20 19:06:00,
2013-11-20 13:11:00,39.6,30.2,30.07,East,89,3.6,10.8,69,0.00,,---,0.00,VWS V14.01,2013-11-20 19:11:00,
2013-11-20 13:16:00,39.7,30.3,30.07,East,98,9.0,10.8,69,0.00,,---,0.00,VWS V14.01,2013-11-20 19:16:00,
2013-11-20 13:21:00,39.7,30.3,30.07,SW,224,5.4,12.6,69,0.00,,---,0.00,VWS V14.01,2013-11-20 19:21:00,
2013-11-20 13:26:00,39.8,30.4,30.07,WSW,237,1.8,10.8,69,0.00,,---,0.00,VWS V14.01,2013-11-20 19:26:00,
2013-11-20 13:31:00,39.9,30.8,30.07,East,88,14.4,18.0,70,0.00,,---,0.00,VWS V14.01,2013-11-20 19:31:00,
2013-11-20 13:36:00,40.0,30.9,30.07,SE,124,10.8,10.8,70,0.00,,---,0.00,VWS V14.01,2013-11-20 19:36:00,
2013-11-20 13:41:00,39.9,30.8,30.06,East,93,5.4,16.2,70,0.00,,---,0.00,VWS V14.01,2013-11-20 19:41:00,
2013-11-20 13:46:00,39.8,31.4,30.06,South,190,3.6,12.6,72,0.00,,---,0.00,VWS V14.01,2013-11-20 19:46:00,
2013-11-20 13:51:00,39.7,31.6,30.06,SE,136,7.2,7.2,73,0.00,,---,0.00,VWS V14.01,2013-11-20 19:51:00,
2013-11-20 13:56:00,39.6,31.8,30.07,SSE,159,3.6,7.2,73,0.00,,---,0.00,VWS V14.01,2013-11-20 19:56:00,
2013-11-20 14:01:00,39.3,31.9,30.07,SE,131,3.6,5.4,74,0.01,,---,0.01,VWS V14.01,2013-11-20 20:01:00,
2013-11-20 14:06:00,39.1,32.3,30.07,SW,214,0.0,5.4,76,0.02,,---,0.02,VWS V14.01,2013-11-20 20:06:00,
2013-11-20 14:11:00,38.9,32.1,30.07,ESE,110,1.8,3.6,76,0.02,,---,0.02,VWS V14.01,2013-11-20 20:11:00,
2013-11-20 14:16:00,38.8,32.6,30.07,ESE,115,3.6,5.4,78,0.03,,---,0.03,VWS V14.01,2013-11-20 20:16:00,
2013-11-20 14:21:00,38.7,32.8,30.07,SE,132,0.0,1.8,79,0.04,,---,0.04,VWS V14.01,2013-11-20 20:21:00,
2013-11-20 14:26:00,38.5,32.6,30.07,SSE,161,7.2,9.0,79,0.04,,---,0.04,VWS V14.01,2013-11-20 20:26:00,
2013-11-20 14:31:00,38.5,32.6,30.07,SSW,195,0.0,5.4,79,0.05,,---,0.05,VWS V14.01,2013-11-20 20:31:00,
2013-11-20 14:36:00,38.4,32.5,30.07,SW,218,1.8,1.8,79,0.07,,---,0.07,VWS V14.01,2013-11-20 20:36:00,
2013-11-20 14:41:00,38.3,32.4,30.07,ESE,110,0.0,3.6,79,0.07,,---,0.07,VWS V14.01,2013-11-20 20:41:00,
2013-11-20 14:46:00,38.2,32.6,30.07,ESE,111,0.0,0.0,80,0.08,,---,0.08,VWS V14.01,2013-11-20 20:46:00,
2013-11-20 14:51:00,38.1,32.8,30.07,ESE,117,3.6,3.6,81,0.09,,---,0.09,VWS V14.01,2013-11-20 20:51:00,
2013-11-20 14:56:00,37.9,32.9,30.07,SSE,166,0.0,0.0,82,0.10,,---,0.10,VWS V14.01,2013-11-20 20:56:00,
2013-11-20 15:01:00,37.9,32.9,30.06,SE,129,0.0,0.0,82,0.09,,---,0.10,VWS V14.01,2013-11-20 21:01:00,
2013-11-20 15:06:00,38.0,33.2,30.06,ESE,122,3.6,3.6,83,0.08,,---,0.10,VWS V14.01,2013-11-20 21:06:00,
2013-11-20 15:11:00,37.9,33.1,30.06,ESE,120,1.8,7.2,83,0.08,,---,0.10,VWS V14.01,2013-11-20 21:11:00,
2013-11-20 15:16:00,37.9,33.1,30.05,ESE,113,0.0,0.0,83,0.08,,---,0.11,VWS V14.01,2013-11-20 21:16:00,
2013-11-20 15:21:00,37.8,33.3,30.05,ESE,113,1.8,3.6,84,0.07,,---,0.11,VWS V14.01,2013-11-20 21:21:00,
2013-11-20 15:26:00,37.8,33.3,30.04,ESE,117,0.0,1.8,84,0.07,,---,0.11,VWS V14.01,2013-11-20 21:26:00,
2013-11-20 15:31:00,37.7,33.2,30.03,ESE,107,1.8,3.6,84,0.06,,---,0.11,VWS V14.01,2013-11-20 21:31:00,
2013-11-20 15:36:00,37.6,33.1,30.03,ESE,108,3.6,5.4,84,0.05,,---,0.12,VWS V14.01,2013-11-20 21:36:00,
2013-11-20 15:41:00,37.5,33.3,30.03,SSW,204,0.0,1.8,85,0.05,,---,0.12,VWS V14.01,2013-11-20 21:41:00,
2013-11-20 15:46:00,37.5,33.3,30.04,SE,124,1.8,3.6,85,0.05,,---,0.13,VWS V14.01,2013-11-20 21:46:00,
2013-11-20 15:51:00,37.4,33.2,30.04,ESE,117,3.6,3.6,85,0.05,,---,0.14,VWS V14.01,2013-11-20 21:51:00,
2013-11-20 15:56:00,37.4,33.2,30.04,SW,224,1.8,3.6,85,0.05,,---,0.15,VWS V14.01,2013-11-20 21:56:00,
2013-11-20 16:01:00,37.3,33.1,30.05,East,82,3.6,5.4,85,0.05,,---,0.15,VWS V14.01,2013-11-20 22:01:00,
2013-11-20 16:06:00,37.3,33.1,30.05,ESE,117,0.0,0.0,85,0.06,,---,0.16,VWS V14.01,2013-11-20 22:06:00,
2013-11-20 16:11:00,37.3,33.1,30.05,ESE,108,3.6,3.6,85,0.06,,---,0.16,VWS V14.01,2013-11-20 22:11:00,
2013-11-20 16:16:00,37.3,33.1,30.05,WSW,237,0.0,0.0,85,0.05,,---,0.16,VWS V14.01,2013-11-20 22:16:00,
2013-11-20 16:21:00,37.3,33.4,30.05,ESE,107,0.0,1.8,86,0.06,,---,0.17,VWS V14.01,2013-11-20 22:21:00,
2013-11-20 16:26:00,37.3,33.4,30.05,ESE,107,0.0,0.0,86,0.06,,---,0.17,VWS V14.01,2013-11-20 22:26:00,
2013-11-20 16:31:00,37.3,33.4,30.05,ESE,112,0.0,0.0,86,0.07,,---,0.18,VWS V14.01,2013-11-20 22:31:00,
2013-11-20 16:36:00,37.2,33.3,30.06,ESE,111,0.0,0.0,86,0.07,,---,0.19,VWS V14.01,2013-11-20 22:36:00,
2013-11-20 16:41:00,37.2,33.3,30.06,ESE,112,0.0,0.0,86,0.07,,---,0.19,VWS V14.01,2013-11-20 22:41:00,
2013-11-20 16:46:00,37.1,33.2,30.06,ESE,112,0.0,0.0,86,0.07,,---,0.20,VWS V14.01,2013-11-20 22:46:00,
2013-11-20 16:51:00,37.1,33.5,30.07,ESE,111,0.0,0.0,86,0.06,,---,0.20,VWS V14.01,2013-11-20 22:51:00,
2013-11-20 16:56:00,37.1,33.5,30.08,ESE,111,0.0,0.0,86,0.06,,---,0.20,VWS V14.01,2013-11-20 22:56:00,
2013-11-20 17:01:00,37.2,33.5,30.09,ESE,113,0.0,0.0,86,0.05,,---,0.20,VWS V14.01,2013-11-20 23:01:00,
2013-11-20 17:06:00,37.2,33.5,30.09,ESE,113,0.0,0.0,86,0.05,,---,0.21,VWS V14.01,2013-11-20 23:06:00,
2013-11-20 17:11:00,37.3,33.7,30.09,ESE,111,0.0,0.0,86,0.05,,---,0.21,VWS V14.01,2013-11-20 23:11:00,
2013-11-20 17:16:00,37.4,33.7,30.09,ESE,111,0.0,0.0,86,0.07,,---,0.23,VWS V14.01,2013-11-20 23:16:00,
2013-11-20 17:21:00,37.4,33.7,30.09,ESE,111,0.0,0.0,86,0.07,,---,0.24,VWS V14.01,2013-11-20 23:21:00,
2013-11-20 17:26:00,37.4,33.7,30.08,ESE,110,0.0,1.8,86,0.09,,---,0.26,VWS V14.01,2013-11-20 23:26:00,
2013-11-20 17:31:00,37.3,33.9,30.08,ESE,110,0.0,0.0,87,0.09,,---,0.27,VWS V14.01,2013-11-20 23:31:00,
2013-11-20 17:36:00,37.3,33.9,30.07,ESE,110,0.0,0.0,87,0.09,,---,0.28,VWS V14.01,2013-11-20 23:36:00,
2013-11-20 17:41:00,37.2,33.8,30.07,ESE,105,0.0,0.0,87,0.09,,---,0.28,VWS V14.01,2013-11-20 23:41:00,
2013-11-20 17:46:00,37.1,33.7,30.07,ENE,70,0.0,3.6,87,0.09,,---,0.29,VWS V14.01,2013-11-20 23:46:00,
2013-11-20 17:51:00,37.1,33.7,30.06,ESE,109,0.0,3.6,87,0.12,,---,0.32,VWS V14.01,2013-11-20 23:51:00,
2013-11-20 17:56:00,37.1,33.7,30.05,ESE,120,1.8,1.8,87,0.14,,---,0.34,VWS V14.01,2013-11-20 23:56:00,
2013-11-20 18:01:00,37.1,33.7,30.05,East,100,3.6,3.6,87,0.15,,---,0.35,VWS V14.01,2013-11-21 00:01:00,
2013-11-20 18:06:00,37.2,34.1,30.05,ESE,120,5.4,5.4,88,0.15,,---,0.36,VWS V14.01,2013-11-21 00:06:00,
2013-11-20 18:11:00,37.2,34.1,30.05,East,82,3.6,3.6,88,0.16,,---,0.37,VWS V14.01,2013-11-21 00:11:00,
2013-11-20 18:16:00,37.3,34.2,30.05,ESE,105,9.0,9.0,88,0.16,,---,0.38,VWS V14.01,2013-11-21 00:16:00,
2013-11-20 18:21:00,37.3,34.2,30.05,East,101,5.4,5.4,88,0.14,,---,0.38,VWS V14.01,2013-11-21 00:21:00,
2013-11-20 18:26:00,37.3,34.2,30.05,ESE,119,0.0,1.8,88,0.12,,---,0.38,VWS V14.01,2013-11-21 00:26:00,
2013-11-20 18:31:00,37.3,33.9,30.06,East,98,3.6,5.4,87,0.12,,---,0.39,VWS V14.01,2013-11-21 00:31:00,
2013-11-20 18:36:00,37.3,33.9,30.06,SSW,207,1.8,5.4,87,0.11,,---,0.39,VWS V14.01,2013-11-21 00:36:00,
2013-11-20 18:41:00,37.4,34.0,30.06,WSW,237,3.6,3.6,87,0.11,,---,0.39,VWS V14.01,2013-11-21 00:41:00,
2013-11-20 18:46:00,37.4,34.0,30.07,South,170,1.8,3.6,87,0.10,,---,0.39,VWS V14.01,2013-11-21 00:46:00,
2013-11-20 18:51:00,37.5,34.1,30.07,SW,233,0.0,5.4,87,0.07,,---,0.39,VWS V14.01,2013-11-21 00:51:00,
2013-11-20 18:56:00,37.5,34.1,30.07,South,180,1.8,1.8,87,0.05,,---,0.39,VWS V14.01,2013-11-21 00:56:00,
2013-11-20 19:01:00,37.6,34.2,30.07,SE,129,7.2,7.2,87,0.04,,---,0.39,VWS V14.01,2013-11-21 01:01:00,
2013-11-20 19:06:00,37.6,34.2,30.07,SSE,163,3.6,3.6,87,0.03,,---,0.39,VWS V14.01,2013-11-21 01:06:00,
2013-11-20 19:11:00,37.7,34.3,30.07,SW,229,5.4,5.4,87,0.02,,---,0.39,VWS V14.01,2013-11-21 01:11:00,
2013-11-20 19:16:00,37.7,34.3,30.07,SW,219,3.6,3.6,87,0.01,,---,0.39,VWS V14.01,2013-11-21 01:16:00,
2013-11-20 19:21:00,37.8,34.4,30.08,SSE,163,0.0,7.2,87,0.01,,---,0.39,VWS V14.01,2013-11-21 01:21:00,
2013-11-20 19:26:00,37.8,34.4,30.07,SW,230,3.6,3.6,87,0.01,,---,0.39,VWS V14.01,2013-11-21 01:26:00,
2013-11-20 19:31:00,37.8,34.4,30.07,SSE,166,1.8,5.4,87,0.01,,---,0.39,VWS V14.01,2013-11-21 01:31:00,
2013-11-20 19:36:00,37.9,34.5,30.07,West,263,3.6,3.6,87,0.00,,---,0.39,VWS V14.01,2013-11-21 01:36:00,
2013-11-20 19:41:00,37.9,34.5,30.07,SSW,201,5.4,7.2,87,0.00,,---,0.39,VWS V14.01,2013-11-21 01:41:00,
2013-11-20 19:46:00,38.0,34.6,30.08,SW,231,1.8,1.8,87,0.00,,---,0.39,VWS V14.01,2013-11-21 01:46:00,
2013-11-20 19:51:00,38.0,34.6,30.09,ENE,64,0.0,1.8,87,0.00,,---,0.39,VWS V14.01,2013-11-21 01:51:00,
2013-11-20 19:56:00,38.0,34.6,30.09,SW,227,0.0,1.8,87,0.01,,---,0.40,VWS V14.01,2013-11-21 01:56:00,
2013-11-20 20:01:00,38.1,34.7,30.09,South,186,1.8,1.8,87,0.01,,---,0.40,VWS V14.01,2013-11-21 02:01:00,
2013-11-20 20:06:00,38.1,34.7,30.09,SW,222,1.8,1.8,87,0.01,,---,0.40,VWS V14.01,2013-11-21 02:06:00,
2013-11-20 20:11:00,38.1,34.7,30.08,SSW,211,1.8,5.4,87,0.01,,---,0.40,VWS V14.01,2013-11-21 02:11:00,
2013-11-20 20:16:00,38.1,34.7,30.09,ESE,117,0.0,1.8,87,0.01,,---,0.40,VWS V14.01,2013-11-21 02:16:00,
2013-11-20 20:21:00,38.1,34.7,30.08,SSW,204,0.0,1.8,87,0.01,,---,0.40,VWS V14.01,2013-11-21 02:21:00,
2013-11-20 20:26:00,38.1,34.7,30.08,SE,139,0.0,1.8,87,0.01,,---,0.40,VWS V14.01,2013-11-21 02:26:00,
2013-11-20 20:31:00,38.1,34.7,30.08,ESE,115,0.0,1.8,87,0.01,,---,0.40,VWS V14.01,2013-11-21 02:31:00,
2013-11-20 20:36:00,38.1,34.7,30.08,SSW,198,1.8,3.6,87,0.01,,---,0.40,VWS V14.01,2013-11-21 02:36:00,
2013-11-20 20:41:00,38.2,34.8,30.08,SE,139,3.6,5.4,87,0.01,,---,0.40,VWS V14.01,2013-11-21 02:41:00,
2013-11-20 20:46:00,38.2,34.8,30.08,SSE,153,0.0,0.0,87,0.01,,---,0.40,VWS V14.01,2013-11-21 02:46:00,
2013-11-20 20:51:00,38.2,34.8,30.08,SW,218,0.0,0.0,87,0.01,,---,0.40,VWS V14.01,2013-11-21 02:51:00,
2013-11-20 20:56:00,38.2,34.8,30.08,SE,142,1.8,1.8,87,0.00,,---,0.40,VWS V14.01,2013-11-21 02:56:00,
2013-11-20 21:01:00,38.3,34.9,30.08,SE,134,0.0,0.0,87,0.00,,---,0.40,VWS V14.01,2013-11-21 03:01:00,
2013-11-20 21:06:00,38.3,34.9,30.08,SW,231,0.0,0.0,87,0.00,,---,0.40,VWS V14.01,2013-11-21 03:06:00,
2013-11-20 21:11:00,38.3,34.9,30.08,ESE,110,0.0,0.0,87,0.00,,---,0.40,VWS V14.01,2013-11-21 03:11:00,
2013-11-20 21:16:00,38.2,34.8,30.08,WSW,245,0.0,1.8,87,0.00,,---,0.40,VWS V14.01,2013-11-21 03:16:00,
2013-11-20 21:21:00,38.3,34.9,30.08,SSW,208,0.0,0.0,87,0.00,,---,0.40,VWS V14.01,2013-11-21 03:21:00,
2013-11-20 21:26:00,38.3,34.9,30.09,ESE,113,0.0,0.0,87,0.00,,---,0.40,VWS V14.01,2013-11-21 03:26:00,
2013-11-20 21:31:00,38.3,34.9,30.08,ESE,117,0.0,0.0,87,0.00,,---,0.40,VWS V14.01,2013-11-21 03:31:00,
2013-11-20 21:36:00,38.3,34.9,30.08,South,172,0.0,0.0,87,0.00,,---,0.40,VWS V14.01,2013-11-21 03:36:00,
2013-11-20 21:41:00,38.3,34.9,30.08,ESE,117,5.4,5.4,87,0.00,,---,0.40,VWS V14.01,2013-11-21 03:41:00,
2013-11-20 21:46:00,38.4,35.0,30.08,East,82,1.8,3.6,87,0.00,,---,0.40,VWS V14.01,2013-11-21 03:46:00,
2013-11-20 21:51:00,38.5,35.1,30.08,ESE,104,0.0,1.8,87,0.00,,---,0.40,VWS V14.01,2013-11-21 03:51:00,
2013-11-20 21:56:00,38.5,35.1,30.08,East,101,0.0,0.0,87,0.00,,---,0.40,VWS V14.01,2013-11-21 03:56:00,
2013-11-20 22:01:00,38.5,35.1,30.08,East,81,0.0,1.8,87,0.00,,---,0.40,VWS V14.01,2013-11-21 04:01:00,
2013-11-20 22:06:00,38.5,35.1,30.08,SW,221,1.8,3.6,87,0.00,,---,0.40,VWS V14.01,2013-11-21 04:06:00,
2013-11-20 22:11:00,38.6,35.2,30.08,SE,127,0.0,1.8,87,0.00,,---,0.40,VWS V14.01,2013-11-21 04:11:00,
2013-11-20 22:16:00,38.6,34.9,30.08,ESE,120,0.0,0.0,86,0.00,,---,0.40,VWS V14.01,2013-11-21 04:16:00,
2013-11-20 22:21:00,38.6,34.9,30.08,ESE,123,0.0,0.0,86,0.00,,---,0.40,VWS V14.01,2013-11-21 04:21:00,
2013-11-20 22:26:00,38.6,34.9,30.08,SSE,162,0.0,0.0,86,0.00,,---,0.40,VWS V14.01,2013-11-21 04:26:00,
2013-11-20 22:31:00,38.6,34.9,30.08,SE,141,0.0,0.0,86,0.00,,---,0.40,VWS V14.01,2013-11-21 04:31:00,
2013-11-20 22:36:00,38.6,34.9,30.08,SE,140,0.0,1.8,86,0.00,,---,0.40,VWS V14.01,2013-11-21 04:36:00,
2013-11-20 22:41:00,38.6,34.9,30.08,SE,140,0.0,1.8,86,0.00,,---,0.40,VWS V14.01,2013-11-21 04:41:00,
2013-11-20 22:46:00,38.5,34.8,30.08,SE,139,0.0,0.0,86,0.00,,---,0.40,VWS V14.01,2013-11-21 04:46:00,
2013-11-20 22:51:00,38.5,35.1,30.08,SE,130,0.0,0.0,87,0.00,,---,0.40,VWS V14.01,2013-11-21 04:51:00,
2013-11-20 22:56:00,38.5,35.1,30.08,SE,130,0.0,0.0,87,0.00,,---,0.40,VWS V14.01,2013-11-21 04:56:00,
2013-11-20 23:01:00,38.5,35.1,30.08,SE,130,0.0,0.0,87,0.00,,---,0.40,VWS V14.01,2013-11-21 05:01:00,
2013-11-20 23:06:00,38.5,35.1,30.08,ESE,117,0.0,1.8,87,0.00,,---,0.40,VWS V14.01,2013-11-21 05:06:00,
2013-11-20 23:11:00,38.5,35.1,30.08,SE,132,0.0,1.8,87,0.00,,---,0.40,VWS V14.01,2013-11-21 05:11:00,
2013-11-20 23:16:00,38.5,35.1,30.08,ESE,123,0.0,0.0,87,0.00,,---,0.40,VWS V14.01,2013-11-21 05:16:00,
2013-11-20 23:21:00,38.5,35.1,30.08,ESE,123,0.0,1.8,87,0.00,,---,0.40,VWS V14.01,2013-11-21 05:21:00,
2013-11-20 23:26:00,38.5,35.1,30.08,ESE,120,1.8,1.8,87,0.00,,---,0.40,VWS V14.01,2013-11-21 05:26:00,
2013-11-20 23:31:00,38.6,35.2,30.08,ESE,117,0.0,1.8,87,0.00,,---,0.40,VWS V14.01,2013-11-21 05:31:00,
2013-11-20 23:36:00,38.5,35.1,30.08,ESE,107,1.8,3.6,87,0.00,,---,0.40,VWS V14.01,2013-11-21 05:36:00,
2013-11-20 23:41:00,38.5,35.1,30.08,ESE,120,0.0,0.0,87,0.00,,---,0.40,VWS V14.01,2013-11-21 05:41:00,
2013-11-20 23:46:00,38.6,35.2,30.08,ESE,120,0.0,0.0,87,0.00,,---,0.40,VWS V14.01,2013-11-21 05:46:00,
2013-11-20 23:51:00,38.6,35.2,30.08,ESE,120,0.0,0.0,87,0.00,,---,0.40,VWS V14.01,2013-11-21 05:51:00,
2013-11-20 23:56:00,38.6,35.2,30.08,ESE,120,0.0,0.0,87,0.00,,---,0.40,VWS V14.01,2013-11-21 05:56:00,
2013-11-20 23:57:00,38.6,35.2,30.09,ESE,120,0.0,0.0,87,0.00,,---,0.40,VWS V14.01,2013-11-21 05:57:00,